Nearby METAR Reports

 

KBFI - Seattle/Boeing, Washington, USA
Distance from station: S 10mi, 16km
Updated: Dec/01/2021 3:53am
Overcast
Overcast
 Wind from SSW
Wind: SSW 13 mph , 20 km/h, Gust: 22 mph , 35 km/h
Temperature: 55°F , 13°C
Dew Point: 46°F , 8°C
Humidity: 72%
Barometer: 30.17 inHg , 1021.7 hPa
Clouds: Overcast
Visibility: 10 miles , 16 km
Cloud details: Partly cloudy 2600 ft
Overcast 10000 ft
2021/12/01 11:53 KBFI 011153Z 21011G19KT 10SM SCT026 OVC100 13/08 A3017 RMK AO2 SLP215 T01330083 10133 20128 56014
KRNT - Renton, Washington, USA
Distance from station: SSE 14mi, 23km
Updated: Dec/01/2021 3:53am
Overcast
Overcast
 Wind from SE
Wind: SE 7 mph , 11 km/h, Gust: 21 mph , 33 km/h
Temperature: 57°F , 14°C
Dew Point: 46°F , 8°C
Humidity: 67%
Barometer: 30.17 inHg , 1021.7 hPa
Clouds: Overcast
Visibility: 10 miles , 16 km
Cloud details: Overcast 3600 ft
2021/12/01 11:53 KRNT 011153Z AUTO 13006G18KT 10SM OVC036 14/08 A3017 RMK AO2 SLP220 7//// T01390078 10139 20128 56016
 
KPAE - Everett, Washington, USA
Distance from station: N 15mi, 25km
Updated: Dec/01/2021 3:53am
Mostly cloudy
Mostly cloudy
 Wind from S
Wind: S 13 mph , 20 km/h, Gust: 31 mph , 50 km/h
Temperature: 54°F , 12°C
Dew Point: 48°F , 9°C
Humidity: 82%
Barometer: 30.15 inHg , 1021 hPa
Clouds: Mostly cloudy
Visibility: 10 miles , 16 km
Cloud details: Mostly cloudy 1900 ft
Mostly cloudy 11000 ft
2021/12/01 11:53 KPAE 011153Z AUTO 17011G27KT 10SM BKN019 BKN110 12/09 A3015 RMK AO2 PK WND 16027/1145 SLP210 70005 T01220089 10122 20111 55000
KSEA - Seattle/Metro, Washington, USA
Distance from station: S 17mi, 27km
Updated: Dec/01/2021 3:53am
Mostly cloudy
Mostly cloudy
 Wind from SW
Wind: SW 15 mph , 24 km/h, Gust: 26 mph , 43 km/h
Temperature: 55°F , 13°C
Dew Point: 46°F , 8°C
Humidity: 72%
Barometer: 30.18 inHg , 1022 hPa
Clouds: Mostly cloudy
Visibility: 10 miles , 16 km
Cloud details: Mostly cloudy 2900 ft
Mostly cloudy 12000 ft
2021/12/01 11:53 KSEA 011153Z 22013G23KT 10SM BKN029 BKN120 13/08 A3018 RMK AO2 SLP225 70003 T01280078 10128 20117 56011
 
KPWT - Bremerton Ntnl, Washington, USA
Distance from station: SW 24mi, 39km
Updated: Dec/01/2021 4:16am
Light rain, Mist, Overcast
Light rain, Mist, Overcast
 Wind from SSW
Wind: SSW 15 mph , 24 km/h, Gust: 21 mph , 33 km/h
Temperature: 52°F , 11°C
Dew Point: 52°F , 11°C
Humidity: 100%
Barometer: 30.17 inHg , 1021.7 hPa
Summary: Light rain, Mist
Clouds: Overcast
Visibility: 4 miles , 6 km
Cloud details: Overcast 300 ft
2021/12/01 12:16 KPWT 011216Z AUTO 20013G18KT 4SM -RA BR OVC003 11/11 A3017 RMK AO2 P0000
KTIW - Tacoma, Washington, USA
Distance from station: SSW 32mi, 52km
Updated: Dec/01/2021 3:53am
Overcast
Overcast
 Wind from SW
Wind: SW 12 mph , 19 km/h
Temperature: 54°F , 12°C
Dew Point: 46°F , 8°C
Humidity: 77%
Barometer: 30.19 inHg , 1022.4 hPa
Clouds: Overcast
Visibility: 10 miles , 16 km
Cloud details: Overcast 3200 ft
2021/12/01 11:53 KTIW 011153Z AUTO 22010KT 10SM OVC032 12/08 A3019 RMK AO2 SLP224 70010 T01170083 10117 20111 58010 $
 
KAWO - Arlington Muni, Washington, USA
Distance from station: N 33mi, 54km
Updated: Dec/01/2021 3:56am
Overcast
Overcast
 Wind from SSE
Wind: SSE 20 mph , 31 km/h, Gust: 24 mph , 39 km/h
Temperature: 55°F , 13°C
Dew Point: 48°F , 9°C
Humidity: 77%
Barometer: 30.15 inHg , 1021 hPa
Clouds: Overcast
Visibility: 10 miles , 16 km
Cloud details: Overcast 2300 ft
2021/12/01 11:56 KAWO 011156Z AUTO 15017G21KT 10SM OVC023 13/09 A3015 RMK AO2 SLP214 60000 T01330094 10139 20122 56007
KTCM - Tacoma/Mc Chord, Washington, USA
Distance from station: S 41mi, 65km
Updated: Dec/01/2021 3:58am
Overcast
Overcast
 Wind from SW
Wind: SW 7 mph , 11 km/h
Temperature: 54°F , 12°C
Dew Point: 46°F , 8°C
Humidity: 77%
Barometer: 30.19 inHg , 1022.4 hPa
Clouds: Overcast
Visibility: 10 miles , 16 km
Cloud details: Few Clouds 6500 ft
Overcast 9500 ft
2021/12/01 11:58 KTCM 011158Z 22006KT 10SM FEW065 OVC095 12/08 A3019 RMK AO2A SLP228 70011 T01190078 10130 20110 57011 $
 
KPLU - Puyallup/Thun, Washington, USA
Distance from station: S 41mi, 66km
Updated: Dec/01/2021 4:15am
Overcast
Overcast
 Wind from calm
Wind: Calm
Temperature: 52°F , 11°C
Dew Point: 50°F , 10°C
Humidity: 94%
Barometer: 30.20 inHg , 1022.7 hPa
Clouds: Overcast
Visibility: 10 miles , 16 km
Cloud details: Mostly cloudy 6000 ft
Overcast 8500 ft
2021/12/01 12:15 KPLU 011215Z AUTO 00000KT 10SM BKN060 OVC085 11/10 A3020 RMK AO2
KGRF - Fort Lewis/Gray, Washington, USA
Distance from station: SSW 45mi, 72km
Updated: Dec/01/2021 3:58am
Partly cloudy
Partly cloudy
 Wind from SSW
Wind: SSW 5 mph , 7 km/h
Temperature: 54°F , 12°C
Dew Point: 45°F , 7°C
Humidity: 72%
Barometer: 30.18 inHg , 1022 hPa
Clouds: Partly cloudy
Visibility: 10 miles , 16 km
Cloud details: Few Clouds 6500 ft
Partly cloudy 9500 ft
2021/12/01 11:58 KGRF 011158Z 20004KT 10SM FEW065 SCT095 12/07 A3018 RMK AO2A SLP224 60000 70017 T01220073 10135 20122 57010 $
 
KNUW - Whidbey Is. Nas, Washington, USA
Distance from station: NNW 48mi, 77km
Updated: Dec/01/2021 3:56am
Overcast
Overcast
 Wind from SE
Wind: SE 13 mph , 20 km/h
Temperature: 55°F , 13°C
Dew Point: 50°F , 10°C
Humidity: 82%
Barometer: 30.15 inHg , 1021 hPa
Clouds: Overcast
Visibility: 10 miles , 16 km
Cloud details: Mostly cloudy 2000 ft
Overcast 4000 ft
2021/12/01 11:56 KNUW 011156Z 13011KT 10SM BKN020 OVC040 13/10 A3015 RMK AO2 SLP209 60000 T01330100 10139 20128 53003 $
KSHN - Shelton, Washington, USA
Distance from station: SW 50mi, 80km
Updated: Dec/01/2021 4:23am
Mist, Overcast
Mist, Overcast
 Wind from SW
Wind: SW 8 mph , 13 km/h
Temperature: 52°F , 11°C
Dew Point: 52°F , 11°C
Humidity: 100%
Barometer: 30.18 inHg , 1022 hPa
Summary: Mist
Clouds: Overcast
Visibility: 1 3/4 miles , 2.8 km
Cloud details: Overcast 1000 ft
2021/12/01 12:23 KSHN 011223Z AUTO 22007KT 1 3/4SM BR OVC010 11/11 A3018 RMK AO2 T01110106